Time;durP1;ratioP1;P1;durP2;ratioP2;P2;SDS_P1;SDS_P2;PMS_P1;PMS_P2;Temp;Humidity;BMP_temperature;BMP_pressure;BME280_temperature;BME280_humidity;BME280_pressure;Samples;Min_cycle;Max_cycle;Signal;HPM_P1;HPM_P2
2023/12/31 00:00:38;;;;;;;85.37;42.00;;;;;;;-144.30;89.20;86430.31;5112518;28;20228;-53
2023/12/31 00:03:05;;;;;;;73.67;41.70;;;;;;;-144.30;89.18;86484.00;5112793;28;20282;-53
2023/12/31 00:05:35;;;;;;;72.73;38.70;;;;;;;-144.30;89.56;86527.75;5112978;28;20693;-53
2023/12/31 00:08:02;;;;;;;77.30;40.80;;;;;;;-144.30;88.86;86472.06;5112747;28;20565;-51
2023/12/31 00:10:29;;;;;;;79.07;40.63;;;;;;;-144.30;88.76;86706.72;5112570;28;20190;-52
2023/12/31 00:12:56;;;;;;;69.13;37.50;;;;;;;-144.30;88.45;86462.13;5112507;28;20212;-53
2023/12/31 00:15:22;;;;;;;74.87;38.57;;;;;;;-144.30;89.32;86474.06;5111745;28;20199;-51
2023/12/31 00:17:49;;;;;;;73.50;38.23;;;;;;;-144.30;90.50;86503.91;5112543;28;20201;-57
2023/12/31 00:20:16;;;;;;;70.33;36.73;;;;;;;-144.30;90.51;86505.88;5112385;28;20602;-52
2023/12/31 00:22:45;;;;;;;71.37;37.43;;;;;;;-144.30;90.56;86521.78;5112408;28;20199;-52
2023/12/31 00:25:11;;;;;;;70.97;36.43;;;;;;;-144.30;89.81;86505.88;5112034;28;20670;-51
2023/12/31 00:27:38;;;;;;;74.53;36.90;;;;;;;-144.30;90.02;86503.91;5112078;28;20202;-52
2023/12/31 00:30:06;;;;;;;61.00;34.37;;;;;;;-144.30;89.66;86515.81;5112368;28;20571;-52
2023/12/31 00:32:33;;;;;;;63.10;34.83;;;;;;;-144.30;89.72;86466.09;5112147;28;20199;-52
2023/12/31 00:35:00;;;;;;;70.13;34.97;;;;;;;-144.30;89.20;86466.09;5111868;28;20191;-51
2023/12/31 00:37:27;;;;;;;64.83;34.83;;;;;;;-144.30;88.81;86450.19;5112110;28;20223;-51
2023/12/31 00:39:55;;;;;;;64.87;35.13;;;;;;;-144.30;88.96;86493.94;5111811;28;20231;-53
2023/12/31 00:42:22;;;;;;;64.80;35.37;;;;;;;-144.30;89.37;86491.97;5111572;28;20693;-54
2023/12/31 00:44:49;;;;;;;60.83;33.23;;;;;;;-144.30;90.11;86513.84;5111946;28;20195;-51
2023/12/31 00:47:16;;;;;;;64.90;33.47;;;;;;;-144.30;90.26;86458.16;5111542;28;20278;-51
2023/12/31 00:49:43;;;;;;;67.13;33.93;;;;;;;-144.30;89.34;86491.97;5111641;28;20228;-53
2023/12/31 00:52:10;;;;;;;59.37;33.20;;;;;;;-144.30;89.51;86495.94;5111418;28;20198;-52
2023/12/31 00:54:39;;;;;;;67.73;34.70;;;;;;;-144.30;89.41;86493.94;5111637;28;20205;-54
2023/12/31 00:57:08;;;;;;;58.37;32.33;;;;;;;-144.30;89.56;86446.22;5111400;28;20282;-53
2023/12/31 00:59:35;;;;;;;61.63;33.93;;;;;;;-144.30;89.44;86486.00;5111405;28;20215;-52
2023/12/31 01:02:01;;;;;;;64.43;34.00;;;;;;;-144.30;90.29;86466.09;5110836;28;20194;-52
2023/12/31 01:04:28;;;;;;;63.70;33.13;;;;;;;-144.30;90.17;86501.91;5111401;28;20208;-53
2023/12/31 01:06:55;;;;;;;65.37;32.70;;;;;;;-144.30;91.47;86513.84;5111385;28;20205;-53
2023/12/31 01:09:22;;;;;;;55.73;31.60;;;;;;;-144.30;91.33;86523.78;5110989;28;20272;-53
2023/12/31 01:11:49;;;;;;;54.80;31.47;;;;;;;-144.30;91.53;86531.72;5111282;28;20224;-52
2023/12/31 01:14:17;;;;;;;55.13;30.20;;;;;;;-144.30;91.10;86541.69;5111114;28;20274;-54
2023/12/31 01:16:44;;;;;;;55.67;28.73;;;;;;;-144.30;90.68;86517.81;5111264;28;20679;-52
2023/12/31 01:19:11;;;;;;;54.23;29.10;;;;;;;-144.30;90.75;86509.84;5111094;28;20587;-53
2023/12/31 01:21:38;;;;;;;50.27;27.57;;;;;;;-144.30;90.68;86509.84;5111266;28;20256;-53
2023/12/31 01:24:05;;;;;;;52.77;26.57;;;;;;;-144.30;90.61;86529.75;5110678;28;20634;-52
2023/12/31 01:26:32;;;;;;;47.00;25.93;;;;;;;-144.30;91.09;86539.69;5110064;28;20238;-51
2023/12/31 01:28:59;;;;;;;50.00;26.33;;;;;;;-144.30;90.51;86527.75;5110622;28;20191;-52
2023/12/31 01:31:27;;;;;;;42.00;25.00;;;;;;;-144.30;90.86;86513.84;5110936;28;20200;-52
2023/12/31 01:33:54;;;;;;;41.70;24.40;;;;;;;-144.30;89.55;86464.13;5110875;28;20191;-53
2023/12/31 01:36:24;;;;;;;42.03;22.20;;;;;;;-144.30;89.71;86571.50;5110614;28;20197;-53
2023/12/31 01:38:51;;;;;;;36.70;21.07;;;;;;;-144.30;89.82;86545.66;5110839;28;20194;-54
2023/12/31 01:41:18;;;;;;;35.03;22.17;;;;;;;-144.30;89.88;86503.91;5110190;28;20226;-52
2023/12/31 01:43:45;;;;;;;39.33;21.63;;;;;;;-144.30;89.53;86505.88;5110677;28;20195;-53
2023/12/31 01:46:23;;;;;;;37.37;21.03;;;;;;;-144.30;89.07;86545.66;5110409;28;20199;-53
2023/12/31 01:48:52;;;;;;;38.47;21.57;;;;;;;-144.30;90.01;86501.91;5110566;28;20194;-53
2023/12/31 01:51:19;;;;;;;37.77;20.30;;;;;;;-144.30;90.10;86486.00;5110407;28;20194;-52
2023/12/31 01:53:46;;;;;;;36.33;20.13;;;;;;;-144.30;90.45;86535.72;5110684;28;20226;-53
2023/12/31 01:56:14;;;;;;;38.30;20.43;;;;;;;-144.30;90.91;86507.88;5110035;28;20195;-53
2023/12/31 01:58:41;;;;;;;35.40;19.67;;;;;;;-144.30;90.70;86553.59;5110457;28;20194;-53
2023/12/31 02:01:09;;;;;;;33.13;19.90;;;;;;;-144.30;90.45;86517.81;5110044;28;20232;-53
2023/12/31 02:03:36;;;;;;;32.80;20.30;;;;;;;-144.30;89.95;86515.81;5110395;28;20257;-53
2023/12/31 02:06:05;;;;;;;41.13;20.53;;;;;;;-144.30;90.40;86521.78;5109995;28;20613;-55
2023/12/31 02:08:32;;;;;;;36.47;19.30;;;;;;;-144.30;89.88;86515.81;5110225;28;20201;-53
2023/12/31 02:10:59;;;;;;;32.00;19.00;;;;;;;-144.30;89.82;86535.72;5110052;28;20187;-53
2023/12/31 02:13:26;;;;;;;33.03;19.50;;;;;;;-144.30;89.83;86523.78;5110442;28;20194;-53
2023/12/31 02:15:53;;;;;;;29.63;19.43;;;;;;;-144.30;89.79;86509.84;5110171;28;20206;-52
2023/12/31 02:18:20;;;;;;;31.03;18.23;;;;;;;-144.30;89.93;86537.69;5109752;28;20195;-53
2023/12/31 02:20:47;;;;;;;33.63;20.20;;;;;;;-144.30;90.64;86547.66;5109993;28;20218;-53
2023/12/31 02:23:16;;;;;;;41.30;20.70;;;;;;;-144.30;90.72;86541.69;5110026;28;20209;-52
2023/12/31 02:25:48;;;;;;;33.97;20.17;;;;;;;-144.30;89.66;86551.63;5110204;28;20190;-52
2023/12/31 02:28:16;;;;;;;33.73;19.77;;;;;;;-144.30;90.34;86493.94;5110080;28;20191;-52
2023/12/31 02:30:44;;;;;;;33.37;18.90;;;;;;;-144.30;90.02;86565.53;5110033;28;20195;-52
2023/12/31 02:33:11;;;;;;;28.83;17.80;;;;;;;-144.30;89.66;86525.75;5109852;28;20226;-52
2023/12/31 02:35:38;;;;;;;31.10;18.23;;;;;;;-144.30;89.85;86533.72;5110121;28;20198;-53
2023/12/31 02:38:05;;;;;;;29.13;18.60;;;;;;;-144.30;89.32;86533.72;5109624;28;20199;-53
2023/12/31 02:40:31;;;;;;;31.97;18.63;;;;;;;-144.30;89.37;86561.56;5109891;28;20214;-54
2023/12/31 02:42:58;;;;;;;34.83;20.40;;;;;;;-144.30;89.66;86523.78;5109686;28;20234;-52
2023/12/31 02:45:27;;;;;;;47.37;22.87;;;;;;;-144.30;89.73;86476.06;5109383;28;20212;-53
2023/12/31 02:47:53;;;;;;;44.03;22.30;;;;;;;-144.30;89.30;86525.75;5109932;28;20197;-53
2023/12/31 02:50:20;;;;;;;37.10;21.13;;;;;;;-144.30;88.98;86529.75;5109475;28;20195;-52
2023/12/31 02:52:48;;;;;;;32.73;19.67;;;;;;;-144.30;88.69;86507.88;5109956;28;20202;-53
2023/12/31 02:55:15;;;;;;;33.07;20.07;;;;;;;-144.30;89.29;86511.84;5109727;28;20681;-53
2023/12/31 02:57:42;;;;;;;33.67;20.83;;;;;;;-144.30;89.62;86489.97;5109572;28;20191;-51
2023/12/31 03:00:10;;;;;;;36.30;21.03;;;;;;;-144.30;89.82;86507.88;5109443;28;20233;-52
2023/12/31 03:02:40;;;;;;;32.93;19.90;;;;;;;-144.30;89.58;86543.66;5109720;28;20651;-52
2023/12/31 03:05:08;;;;;;;33.93;20.23;;;;;;;-144.30;89.75;86537.69;5109502;28;20201;-52
2023/12/31 03:07:35;;;;;;;31.43;19.47;;;;;;;-144.30;89.52;86533.72;5109685;28;20220;-52
2023/12/31 03:10:02;;;;;;;33.77;19.30;;;;;;;-144.30;89.77;86478.03;5109240;28;20307;-52
2023/12/31 03:12:29;;;;;;;34.20;21.13;;;;;;;-144.30;89.97;86511.84;5109312;28;20285;-52
2023/12/31 03:14:57;;;;;;;30.30;19.23;;;;;;;-144.30;89.82;86537.69;5109349;28;20198;-54
2023/12/31 03:17:24;;;;;;;30.27;19.40;;;;;;;-144.30;89.60;86505.88;5109214;28;20290;-54
2023/12/31 03:19:52;;;;;;;32.00;19.00;;;;;;;-144.30;89.35;86537.69;5109565;28;20195;-53
2023/12/31 03:22:19;;;;;;;41.50;20.53;;;;;;;-144.30;89.43;86545.66;5109563;28;20199;-53
2023/12/31 03:24:46;;;;;;;32.70;20.30;;;;;;;-144.30;90.08;86517.81;5109664;28;20191;-52
2023/12/31 03:27:13;;;;;;;33.63;20.00;;;;;;;-144.30;90.32;86531.72;5108855;28;20199;-53
2023/12/31 03:29:40;;;;;;;34.03;20.63;;;;;;;-144.30;89.66;86505.88;5108756;28;20205;-51
2023/12/31 03:32:08;;;;;;;30.17;20.23;;;;;;;-144.30;89.14;86535.72;5109384;28;20567;-52
2023/12/31 03:34:35;;;;;;;33.53;19.73;;;;;;;-144.30;88.82;86521.78;5109554;28;20718;-52
2023/12/31 03:37:05;;;;;;;33.23;19.97;;;;;;;-144.30;89.41;86505.88;5109084;28;20221;-52
2023/12/31 03:39:32;;;;;;;40.87;20.97;;;;;;;-144.30;89.46;86539.69;5109056;28;20205;-53
2023/12/31 03:41:59;;;;;;;33.70;19.80;;;;;;;-144.30;89.71;86509.84;5108968;28;20339;-52
2023/12/31 03:44:26;;;;;;;31.53;19.43;;;;;;;-144.30;89.49;86523.78;5109087;28;20194;-51
2023/12/31 03:46:53;;;;;;;31.17;19.47;;;;;;;-144.30;89.41;86499.91;5109257;28;20195;-52
2023/12/31 03:49:20;;;;;;;36.47;20.67;;;;;;;-144.30;89.84;86497.94;5109345;28;20205;-52
2023/12/31 03:51:47;;;;;;;35.50;19.07;;;;;;;-144.30;89.62;86480.03;5112853;28;20197;-53
2023/12/31 03:54:15;;;;;;;31.50;19.27;;;;;;;-144.30;89.56;86515.81;5112129;28;20217;-52
2023/12/31 03:56:42;;;;;;;36.37;20.53;;;;;;;-144.30;90.15;86493.94;5112614;28;20195;-51
2023/12/31 03:59:09;;;;;;;38.33;21.03;;;;;;;-144.30;90.05;86517.81;5112905;28;20267;-53
2023/12/31 04:01:44;;;;;;;32.70;20.07;;;;;;;-144.30;90.19;86525.75;5112716;28;20219;-51
2023/12/31 04:04:11;;;;;;;36.57;20.80;;;;;;;-144.30;90.34;86529.75;5112428;28;20216;-51
2023/12/31 04:06:37;;;;;;;37.17;20.77;;;;;;;-144.30;90.65;86533.72;5112326;28;20198;-53
2023/12/31 04:09:04;;;;;;;35.77;21.17;;;;;;;-144.30;91.10;86509.84;5112526;28;20623;-53
2023/12/31 04:11:33;;;;;;;37.77;21.63;;;;;;;-144.30;90.43;86509.84;5112425;28;20286;-53
2023/12/31 04:13:59;;;;;;;34.80;21.33;;;;;;;-144.30;89.91;86545.66;5112583;28;20618;-53
2023/12/31 04:16:26;;;;;;;34.57;21.23;;;;;;;-144.30;90.31;86531.72;5112326;28;20281;-52
2023/12/31 04:18:53;;;;;;;37.97;21.87;;;;;;;-144.30;89.65;86503.91;5112535;28;20205;-52
2023/12/31 04:21:20;;;;;;;33.47;21.43;;;;;;;-144.30;89.15;86507.88;5112068;28;20230;-54
2023/12/31 04:23:47;;;;;;;32.67;20.40;;;;;;;-144.30;88.90;86509.84;5112530;28;20194;-53
2023/12/31 04:26:14;;;;;;;39.87;23.07;;;;;;;-144.30;89.44;86535.72;5112197;28;20579;-52
2023/12/31 04:28:42;;;;;;;33.97;21.23;;;;;;;-144.30;88.98;86495.94;5112149;28;20199;-52
2023/12/31 04:31:09;;;;;;;33.73;19.97;;;;;;;-144.30;89.17;86529.75;5112026;28;20678;-51
2023/12/31 04:33:37;;;;;;;30.03;19.47;;;;;;;-144.30;88.96;86505.88;5111951;28;20712;-53
2023/12/31 04:36:05;;;;;;;37.40;22.17;;;;;;;-144.30;88.69;86521.78;5111740;28;20202;-53
2023/12/31 04:38:32;;;;;;;38.03;22.10;;;;;;;-144.30;89.05;86525.75;5112442;28;20561;-52
2023/12/31 04:40:59;;;;;;;33.20;20.60;;;;;;;-144.30;89.01;86495.94;5112138;28;20235;-52
2023/12/31 04:43:26;;;;;;;31.17;20.27;;;;;;;-144.30;89.57;86511.84;5111842;28;20229;-52
2023/12/31 04:45:54;;;;;;;31.90;19.90;;;;;;;-144.30;89.71;86533.72;5112025;28;20194;-52
2023/12/31 04:48:21;;;;;;;36.93;20.90;;;;;;;-144.30;89.55;86462.13;5111550;28;20191;-52
2023/12/31 04:50:48;;;;;;;33.27;21.50;;;;;;;-144.30;89.47;86533.72;5111771;28;20187;-50
2023/12/31 04:53:20;;;;;;;42.97;21.00;;;;;;;-144.30;89.83;86507.88;5111537;28;20202;-51
2023/12/31 04:55:47;;;;;;;37.07;20.87;;;;;;;-144.30;89.20;86519.81;5111558;28;20194;-53
2023/12/31 04:58:14;;;;;;;36.03;21.30;;;;;;;-144.30;89.27;86539.69;5111496;28;20202;-51
2023/12/31 05:00:41;;;;;;;34.53;20.57;;;;;;;-144.30;89.47;86487.97;5110630;28;20218;-52
2023/12/31 05:03:09;;;;;;;35.73;20.93;;;;;;;-144.30;89.18;86541.69;5110980;28;20635;-52
2023/12/31 05:05:36;;;;;;;31.97;20.47;;;;;;;-144.30;89.13;86537.69;5111440;28;20201;-52
2023/12/31 05:08:03;;;;;;;36.70;23.23;;;;;;;-144.30;89.30;86507.88;5111399;28;20277;-50
2023/12/31 05:10:30;;;;;;;40.67;23.10;;;;;;;-144.30;89.43;87078.63;5111401;28;20285;-52
2023/12/31 05:12:58;;;;;;;42.37;26.10;;;;;;;-144.30;89.30;86519.81;5111524;28;20204;-52
2023/12/31 05:15:25;;;;;;;38.10;24.70;;;;;;;-144.30;89.37;86537.69;5111166;28;20194;-51
2023/12/31 05:17:52;;;;;;;37.63;23.67;;;;;;;-144.30;88.91;86525.75;5111368;28;20199;-51
2023/12/31 05:20:20;;;;;;;36.43;23.60;;;;;;;-144.30;89.22;86535.72;5110926;28;20199;-52
2023/12/31 05:22:47;;;;;;;40.30;23.53;;;;;;;-144.30;88.61;86521.78;5111240;28;20190;-51
2023/12/31 05:25:14;;;;;;;40.37;23.57;;;;;;;-144.30;90.73;86557.59;5111101;28;20230;-52
2023/12/31 05:27:41;;;;;;;38.63;22.90;;;;;;;-144.30;90.79;86529.75;5111324;28;20564;-53
2023/12/31 05:30:10;;;;;;;39.27;23.40;;;;;;;-144.30;90.99;86537.69;5110928;28;20587;-53
2023/12/31 05:32:37;;;;;;;37.90;23.10;;;;;;;-144.30;90.74;86525.75;5111192;28;20195;-52
2023/12/31 05:35:04;;;;;;;35.00;21.70;;;;;;;-144.30;91.41;86553.59;5110718;28;20200;-52
2023/12/31 05:37:33;;;;;;;39.40;23.57;;;;;;;-144.30;91.16;86537.69;5110811;28;20252;-53
2023/12/31 05:40:00;;;;;;;50.33;29.90;;;;;;;-144.30;91.14;86559.56;5111053;28;20722;-52
2023/12/31 05:42:27;;;;;;;45.77;28.70;;;;;;;-144.30;91.76;86565.53;5110408;28;20230;-52
2023/12/31 05:44:54;;;;;;;46.10;26.00;;;;;;;-144.30;91.94;86519.81;5111008;28;20666;-53
2023/12/31 05:47:21;;;;;;;44.83;25.60;;;;;;;-144.30;92.37;86525.75;5110538;28;20683;-51
2023/12/31 05:49:48;;;;;;;36.50;23.47;;;;;;;-144.30;91.99;86541.69;5110683;28;20194;-52
2023/12/31 05:52:14;;;;;;;40.37;23.13;;;;;;;-144.30;91.86;86489.97;5110488;28;20191;-51
2023/12/31 05:54:43;;;;;;;33.00;21.13;;;;;;;-144.30;92.24;86535.72;5110756;28;20675;-55
2023/12/31 05:57:10;;;;;;;35.40;21.83;;;;;;;-144.30;93.25;86543.66;5110491;28;20204;-56
2023/12/31 05:59:37;;;;;;;35.80;21.57;;;;;;;-144.30;92.42;86539.69;5110957;28;20206;-52
2023/12/31 06:02:04;;;;;;;34.93;22.40;;;;;;;-144.30;92.04;86545.66;5109755;28;20214;-52
2023/12/31 06:04:31;;;;;;;41.30;22.73;;;;;;;-144.30;92.16;86529.75;5110548;28;20195;-53
2023/12/31 06:06:58;;;;;;;34.10;20.83;;;;;;;-144.30;91.89;86551.63;5110268;28;20235;-52
2023/12/31 06:09:26;;;;;;;40.50;22.80;;;;;;;-144.30;92.36;86511.84;5098478;28;20202;-53
2023/12/31 06:11:54;;;;;;;37.30;22.60;;;;;;;-144.30;92.18;86537.69;5109730;28;20201;-53
2023/12/31 06:14:21;;;;;;;39.17;22.20;;;;;;;-144.30;92.21;86545.66;5110242;28;20696;-52
2023/12/31 06:16:48;;;;;;;36.40;21.63;;;;;;;-144.30;93.32;86458.16;5110338;28;20614;-52
2023/12/31 06:19:15;;;;;;;36.67;21.80;;;;;;;-144.30;92.98;86521.78;5110314;28;20205;-51
2023/12/31 06:21:42;;;;;;;45.23;24.00;;;;;;;-144.30;92.34;86541.69;5110361;28;20214;-56
2023/12/31 06:24:09;;;;;;;107.87;44.17;;;;;;;-144.30;92.42;86531.72;5109404;28;20198;-53
2023/12/31 06:26:36;;;;;;;120.50;48.17;;;;;;;-144.30;92.42;86521.78;5107177;28;20222;-54
2023/12/31 06:29:04;;;;;;;114.53;47.83;;;;;;;-144.30;92.10;86503.91;5109327;28;20195;-51
2023/12/31 06:31:31;;;;;;;76.17;35.47;;;;;;;-144.30;91.82;86487.97;5109542;28;20195;-51
2023/12/31 06:33:58;;;;;;;56.73;29.97;;;;;;;-144.30;91.67;86525.75;5110113;28;20650;-53
2023/12/31 06:36:25;;;;;;;42.50;25.23;;;;;;;-144.30;91.35;86561.56;5109663;28;20558;-54
2023/12/31 06:38:52;;;;;;;49.40;25.93;;;;;;;-144.30;91.25;86484.00;5109531;28;20202;-52
2023/12/31 06:41:21;;;;;;;52.13;25.30;;;;;;;-144.30;91.24;86446.22;5102345;28;20616;-54
2023/12/31 06:43:48;;;;;;;48.03;26.27;;;;;;;-144.30;91.40;86511.84;5109361;28;20198;-53
2023/12/31 06:46:16;;;;;;;45.43;25.67;;;;;;;-144.30;90.99;86515.81;5108697;28;20226;-52
2023/12/31 06:48:43;;;;;;;50.87;27.60;;;;;;;-144.30;91.09;86499.91;5107237;28;20202;-53
2023/12/31 06:51:10;;;;;;;42.23;24.70;;;;;;;-144.30;90.97;86513.84;5110171;28;20190;-50
2023/12/31 06:53:37;;;;;;;38.13;24.27;;;;;;;-144.30;90.78;86486.00;5109786;27;20758;-52
2023/12/31 06:56:07;;;;;;;50.43;27.17;;;;;;;-144.30;90.20;86529.75;5108321;28;20841;-53
2023/12/31 06:58:36;;;;;;;52.05;32.30;;;;;;;-144.30;89.73;86486.00;5108482;28;20435;-54
2023/12/31 07:01:04;;;;;;;47.07;28.80;;;;;;;-144.30;88.89;86478.03;5107731;28;20183;-53
2023/12/31 07:03:32;;;;;;;46.83;25.13;;;;;;;-144.30;88.28;86476.06;5109002;28;20656;-52
2023/12/31 07:05:59;;;;;;;39.23;23.23;;;;;;;-144.30;88.19;86505.88;5108080;28;20183;-54
2023/12/31 07:08:26;;;;;;;40.30;23.03;;;;;;;-144.30;86.99;86474.06;5107206;28;20576;-52
2023/12/31 07:10:53;;;;;;;30.70;20.93;;;;;;;-144.30;86.41;86480.03;5107811;28;20186;-52
2023/12/31 07:13:20;;;;;;;36.07;21.03;;;;;;;-144.30;85.68;86487.97;5108846;28;20586;-53
2023/12/31 07:15:48;;;;;;;31.70;21.07;;;;;;;-144.30;87.13;86487.97;5109071;28;20577;-51
2023/12/31 07:18:15;;;;;;;32.23;20.30;;;;;;;-144.30;86.75;86478.03;5108416;28;20206;-52
2023/12/31 07:20:43;;;;;;;35.57;20.47;;;;;;;-144.30;85.46;86487.97;5108628;28;20187;-52
2023/12/31 07:23:10;;;;;;;30.20;19.57;;;;;;;-144.30;84.92;86525.75;5114035;28;20213;-51
2023/12/31 07:25:37;;;;;;;28.07;18.33;;;;;;;-144.30;84.46;86493.94;5123740;27;20190;-52
2023/12/31 07:28:05;;;;;;;38.00;21.97;;;;;;;-144.30;84.92;86521.78;5123256;27;20206;-53
2023/12/31 07:30:32;;;;;;;33.70;19.97;;;;;;;-144.30;85.50;86480.03;5119164;27;20267;-52
2023/12/31 07:32:59;;;;;;;29.77;19.07;;;;;;;-144.30;85.02;86489.97;5113985;27;20195;-51
2023/12/31 07:35:25;;;;;;;37.00;21.63;;;;;;;-144.30;85.33;86505.88;5112859;28;20195;-52
2023/12/31 07:37:55;;;;;;;35.60;21.47;;;;;;;-144.30;85.79;86549.63;5112942;28;20195;-53
2023/12/31 07:40:22;;;;;;;34.80;20.00;;;;;;;-144.30;85.26;86501.91;5112154;28;20197;-53
2023/12/31 07:42:50;;;;;;;36.80;22.03;;;;;;;-144.30;85.86;86505.88;5112624;28;20226;-51
2023/12/31 07:45:17;;;;;;;37.57;23.43;;;;;;;-144.30;84.84;86493.94;5112681;28;20264;-53
2023/12/31 07:47:44;;;;;;;37.73;22.97;;;;;;;-144.30;84.26;86460.16;5112619;28;20667;-53
2023/12/31 07:50:11;;;;;;;32.07;19.70;;;;;;;-144.30;84.17;86476.06;5112662;28;20672;-53
2023/12/31 07:52:38;;;;;;;32.63;17.73;;;;;;;-144.30;83.88;86497.94;5108713;28;20197;-53
2023/12/31 07:55:09;;;;;;;29.47;17.90;;;;;;;-144.30;84.33;86551.63;5111668;28;20198;-52
2023/12/31 07:57:36;;;;;;;26.53;17.50;;;;;;;-144.30;84.32;86410.44;5112073;28;20191;-51
2023/12/31 08:00:05;;;;;;;27.73;17.80;;;;;;;-144.30;83.76;86478.03;5111287;28;20201;-53
2023/12/31 08:02:32;;;;;;;31.93;18.53;;;;;;;-144.30;83.03;86456.16;5112184;28;20221;-52
2023/12/31 08:04:59;;;;;;;35.33;19.07;;;;;;;-144.30;83.37;86400.50;5112063;28;20551;-51
2023/12/31 08:07:26;;;;;;;34.33;19.20;;;;;;;-144.30;82.71;86462.13;5110897;28;20199;-53
2023/12/31 08:09:52;;;;;;;29.10;18.67;;;;;;;-144.30;82.04;86414.41;5112553;28;20195;-50
2023/12/31 08:12:21;;;;;;;29.20;18.80;;;;;;;-144.30;81.30;86456.16;5112292;28;20251;-52
2023/12/31 08:14:48;;;;;;;26.50;17.10;;;;;;;-144.30;81.15;86396.50;5113079;28;20575;-51
2023/12/31 08:17:15;;;;;;;27.13;17.77;;;;;;;-144.30;80.79;86450.19;5112254;28;20199;-52
2023/12/31 08:19:42;;;;;;;25.97;17.93;;;;;;;-144.30;79.92;86406.44;5112248;28;20198;-52
2023/12/31 08:22:09;;;;;;;30.87;19.67;;;;;;;-144.30;79.80;86446.22;5112335;28;20309;-52
2023/12/31 08:24:36;;;;;;;33.50;20.10;;;;;;;-144.30;79.94;86362.72;5112420;28;20202;-53
2023/12/31 08:27:03;;;;;;;34.60;20.73;;;;;;;-144.30;78.46;86396.50;5110979;28;20206;-52
2023/12/31 08:29:31;;;;;;;36.20;21.73;;;;;;;-144.30;77.62;86374.63;5110069;28;20646;-52
2023/12/31 08:31:58;;;;;;;33.50;20.93;;;;;;;-144.30;76.83;86307.03;5111070;28;20189;-52
2023/12/31 08:34:25;;;;;;;33.93;22.70;;;;;;;-144.30;76.93;86354.75;5111762;28;20234;-53
2023/12/31 08:36:52;;;;;;;40.90;24.27;;;;;;;-144.30;75.70;86311.00;5111576;28;20230;-53
2023/12/31 08:39:19;;;;;;;41.03;24.70;;;;;;;-144.30;74.72;86314.97;5111478;28;20195;-52
2023/12/31 08:41:46;;;;;;;43.70;24.70;;;;;;;-144.30;74.34;86299.06;5106579;28;20258;-53
2023/12/31 08:44:13;;;;;;;38.90;24.67;;;;;;;-144.30;73.82;86271.25;5110892;28;20564;-53
2023/12/31 08:46:41;;;;;;;44.37;27.07;;;;;;;-144.30;74.21;86318.97;5111294;28;20198;-52
2023/12/31 08:49:08;;;;;;;40.57;25.37;;;;;;;-144.30;74.42;86293.09;5111525;28;20236;-53
2023/12/31 08:51:35;;;;;;;39.33;26.67;;;;;;;-144.30;74.11;86263.28;5109259;28;20653;-54
2023/12/31 08:54:02;;;;;;;49.73;27.83;;;;;;;-144.30;74.13;86277.19;5111571;28;20248;-53
2023/12/31 08:56:29;;;;;;;47.43;28.80;;;;;;;-144.30;72.59;86316.97;5111291;28;20278;-53
2023/12/31 08:58:56;;;;;;;52.33;29.57;;;;;;;-144.30;71.75;86249.38;5111781;28;20206;-52
2023/12/31 09:01:23;;;;;;;49.17;28.60;;;;;;;-144.30;71.70;86203.63;5110083;28;20198;-53
2023/12/31 09:03:51;;;;;;;57.60;30.33;;;;;;;-144.30;71.23;86271.25;5109304;28;20211;-53
2023/12/31 09:06:19;;;;;;;50.27;30.83;;;;;;;-144.30;70.77;86255.34;5109834;28;20575;-55
2023/12/31 09:08:46;;;;;;;48.77;29.20;;;;;;;-144.30;70.17;86277.19;5110723;28;20194;-52
2023/12/31 09:11:13;;;;;;;52.37;29.20;;;;;;;-144.30;69.80;86219.53;5110436;28;20198;-53
2023/12/31 09:13:40;;;;;;;47.50;29.43;;;;;;;-144.30;69.25;86223.50;5111603;28;20187;-53
2023/12/31 09:16:07;;;;;;;45.20;29.27;;;;;;;-144.30;67.98;86217.56;5111286;28;20201;-52
2023/12/31 09:18:34;;;;;;;60.40;30.77;;;;;;;-144.30;67.91;86173.81;5111155;28;20277;-52
2023/12/31 09:21:03;;;;;;;51.87;28.73;;;;;;;-144.30;68.35;86217.56;5111132;28;20198;-53
2023/12/31 09:23:30;;;;;;;47.57;28.40;;;;;;;-144.30;69.15;86203.63;5110774;28;20296;-54
2023/12/31 09:25:57;;;;;;;52.43;27.60;;;;;;;-144.30;68.67;86175.78;5111079;28;20198;-53
2023/12/31 09:28:24;;;;;;;42.87;24.97;;;;;;;-144.30;68.50;86223.50;5110740;28;20202;-52
2023/12/31 09:30:51;;;;;;;40.97;25.37;;;;;;;-144.30;68.71;86159.88;5111158;28;20187;-53
2023/12/31 09:33:18;;;;;;;42.80;25.73;;;;;;;-144.30;68.06;86199.66;5110803;28;20194;-54
2023/12/31 09:35:45;;;;;;;45.13;26.50;;;;;;;-144.30;68.37;86183.75;5110753;28;20203;-54
2023/12/31 09:38:13;;;;;;;43.90;26.80;;;;;;;-144.30;68.35;86211.59;5110673;28;20213;-52
2023/12/31 09:40:42;;;;;;;45.00;27.03;;;;;;;-144.30;67.79;86167.84;5110995;28;20194;-55
2023/12/31 09:43:10;;;;;;;45.20;27.10;;;;;;;-144.30;67.29;86191.69;5110761;28;20608;-54
2023/12/31 09:45:37;;;;;;;43.57;26.97;;;;;;;-144.30;66.80;86092.28;5110941;28;20234;-54
2023/12/31 09:48:05;;;;;;;49.23;27.23;;;;;;;-144.30;66.67;86163.88;5110298;28;20226;-53
2023/12/31 09:50:34;;;;;;;53.17;28.57;;;;;;;-144.30;66.61;86173.81;5110403;28;20198;-55
2023/12/31 09:53:03;;;;;;;52.90;29.00;;;;;;;-144.30;66.35;86149.94;5111176;28;20191;-53
2023/12/31 09:55:31;;;;;;;51.07;27.50;;;;;;;-144.30;66.41;86090.28;5110430;28;20202;-54
2023/12/31 09:57:59;;;;;;;56.93;28.57;;;;;;;-144.30;66.05;86157.91;5110558;28;20195;-54
2023/12/31 10:00:26;;;;;;;45.33;28.43;;;;;;;-144.30;65.61;86112.16;5110435;28;20221;-52
2023/12/31 10:02:53;;;;;;;52.90;31.43;;;;;;;-144.30;65.60;86102.22;5110766;28;20226;-53
2023/12/31 10:05:23;;;;;;;45.90;29.07;;;;;;;-144.30;65.20;86124.09;5110159;28;20190;-54
2023/12/31 10:07:50;;;;;;;48.60;29.87;;;;;;;-144.30;64.91;86094.28;5110511;28;20194;-54
2023/12/31 10:10:19;;;;;;;51.57;31.10;;;;;;;-144.30;64.28;86068.41;5110213;28;20280;-53
2023/12/31 10:12:48;;;;;;;63.03;33.60;;;;;;;-144.30;64.14;86088.31;5110128;28;20193;-54
2023/12/31 10:15:15;;;;;;;55.73;32.43;;;;;;;-144.30;63.97;86072.41;5109989;28;20206;-53
2023/12/31 10:17:42;;;;;;;49.63;32.53;;;;;;;-144.30;63.87;86048.53;5110049;28;20714;-54
2023/12/31 10:20:09;;;;;;;56.53;33.10;;;;;;;-144.30;64.21;86138.00;5110039;28;20195;-53
2023/12/31 10:22:37;;;;;;;56.37;33.77;;;;;;;-144.30;63.73;86040.59;5110109;28;20634;-53
2023/12/31 10:25:14;;;;;;;61.37;35.70;;;;;;;-144.30;63.56;86110.19;5109968;28;20197;-52
2023/12/31 10:27:42;;;;;;;55.00;34.57;;;;;;;-144.30;63.53;86096.25;5109777;28;20194;-53
2023/12/31 10:30:12;;;;;;;63.50;38.43;;;;;;;-144.30;64.16;86134.03;5109548;28;20198;-52
2023/12/31 10:32:39;;;;;;;66.70;39.17;;;;;;;-144.30;64.51;86370.66;5109863;28;20191;-54
2023/12/31 10:35:07;;;;;;;67.07;40.67;;;;;;;-144.30;64.67;86116.16;5110169;28;20221;-54
2023/12/31 10:37:34;;;;;;;73.93;41.53;;;;;;;-144.30;65.11;86136.03;5109616;28;20195;-54
2023/12/31 10:40:17;;;;;;;68.13;39.83;;;;;;;-144.30;65.85;86136.03;5109800;28;20209;-53
2023/12/31 10:42:48;;;;;;;67.90;39.67;;;;;;;-144.30;66.40;86128.06;5108639;28;20226;-53
2023/12/31 10:45:19;;;;;;;68.00;39.97;;;;;;;-144.30;66.50;86140.00;5109741;28;20202;-54
2023/12/31 10:47:50;;;;;;;70.13;40.80;;;;;;;-144.30;66.63;86143.97;5109275;28;20195;-53
2023/12/31 10:50:20;;;;;;;83.33;46.87;;;;;;;-144.30;66.68;86108.19;5109716;28;20195;-53
2023/12/31 10:52:50;;;;;;;82.13;47.33;;;;;;;-144.30;67.34;86124.09;5109978;28;20192;-54
2023/12/31 10:55:18;;;;;;;83.77;44.67;;;;;;;-144.30;66.85;86203.63;5109837;28;20544;-53
2023/12/31 10:57:45;;;;;;;79.97;45.00;;;;;;;-144.30;67.09;86167.84;5109867;28;20198;-54
2023/12/31 11:00:13;;;;;;;69.63;39.93;;;;;;;-144.30;66.52;86163.88;5113330;28;20198;-53
2023/12/31 11:02:43;;;;;;;61.37;37.60;;;;;;;-144.30;66.24;86132.06;5113924;28;20260;-52